createdAt,value
2022-12-27T00:01:12.200Z,4.57
2022-12-27T00:03:41.232Z,6.03
2022-12-27T00:06:13.064Z,3.93
2022-12-27T00:08:41.366Z,5.43
2022-12-27T00:11:11.300Z,5.30
2022-12-27T00:13:40.071Z,6.17
2022-12-27T00:16:11.035Z,4.90
2022-12-27T00:18:40.405Z,7.40
2022-12-27T00:21:11.084Z,5.37
2022-12-27T00:23:44.189Z,3.67
2022-12-27T00:26:14.842Z,5.13
2022-12-27T00:28:43.350Z,4.53
2022-12-27T00:31:12.319Z,6.47
2022-12-27T00:33:42.553Z,6.67
2022-12-27T00:36:14.046Z,4.53
2022-12-27T00:38:43.981Z,3.80
2022-12-27T00:41:12.612Z,4.27
2022-12-27T00:43:41.084Z,3.63
2022-12-27T00:46:10.170Z,3.90
2022-12-27T00:48:38.733Z,4.00
2022-12-27T00:51:09.477Z,4.67
2022-12-27T00:53:38.068Z,4.97
2022-12-27T00:56:10.530Z,2.40
2022-12-27T00:58:41.048Z,5.43
2022-12-27T01:01:11.251Z,4.43
2022-12-27T01:03:40.865Z,5.03
2022-12-27T01:06:10.701Z,4.30
2022-12-27T01:08:38.908Z,3.77
2022-12-27T01:11:09.283Z,3.47
2022-12-27T01:13:38.775Z,4.57
2022-12-27T01:16:11.244Z,2.40
2022-12-27T01:18:39.868Z,2.57
2022-12-27T01:21:08.944Z,3.57
2022-12-27T01:23:37.401Z,5.17
2022-12-27T01:26:12.197Z,3.93
2022-12-27T01:28:40.611Z,4.77
2022-12-27T01:31:10.912Z,4.43
2022-12-27T01:33:39.766Z,5.27
2022-12-27T01:36:13.258Z,7.73
2022-12-27T01:38:43.710Z,2.60
2022-12-27T01:41:31.792Z,3.90
2022-12-27T01:44:00.043Z,6.53
2022-12-27T01:46:30.036Z,4.47
2022-12-27T01:48:58.654Z,3.87
2022-12-27T01:51:26.972Z,3.23
2022-12-27T01:53:55.313Z,4.67
2022-12-27T01:56:30.676Z,2.93
2022-12-27T01:59:03.002Z,2.90
2022-12-27T02:01:34.934Z,3.40
2022-12-27T02:04:06.605Z,5.97
2022-12-27T02:06:36.607Z,4.00
2022-12-27T02:09:11.526Z,4.33
2022-12-27T02:11:53.399Z,5.13
2022-12-27T02:14:28.240Z,4.03
2022-12-27T02:16:58.428Z,3.40
2022-12-27T02:19:38.739Z,3.67
2022-12-27T02:22:27.619Z,4.17
2022-12-27T02:25:05.206Z,6.90
2022-12-27T02:28:00.942Z,4.57
2022-12-27T02:30:33.227Z,4.63
2022-12-27T02:33:05.666Z,6.17
2022-12-27T02:35:40.191Z,3.23
2022-12-27T02:38:13.636Z,5.47
2022-12-27T02:41:02.928Z,4.63
2022-12-27T02:43:50.217Z,5.20
2022-12-27T02:46:41.001Z,5.03
2022-12-27T02:49:43.352Z,5.10
2022-12-27T02:52:39.019Z,4.13
2022-12-27T02:55:21.050Z,2.53
2022-12-27T02:57:56.976Z,4.10
2022-12-27T03:00:44.657Z,3.90
2022-12-27T03:03:38.355Z,5.33
2022-12-27T03:06:42.282Z,5.10
2022-12-27T03:09:51.510Z,4.13
2022-12-27T03:12:45.610Z,4.63
2022-12-27T03:15:48.871Z,3.10
2022-12-27T03:18:24.255Z,4.23
2022-12-27T03:21:11.259Z,4.43
2022-12-27T03:24:10.780Z,5.27
2022-12-27T03:26:44.377Z,3.90
2022-12-27T03:29:32.611Z,7.43
2022-12-27T03:32:23.865Z,6.47
2022-12-27T03:34:56.819Z,4.70
2022-12-27T03:37:46.839Z,3.93
2022-12-27T03:40:21.585Z,4.37
2022-12-27T03:43:12.498Z,3.27
2022-12-27T03:46:26.718Z,3.03
2022-12-27T03:49:06.208Z,6.80
2022-12-27T03:51:38.971Z,5.47
2022-12-27T03:54:10.677Z,4.63
2022-12-27T03:56:41.871Z,5.70
2022-12-27T03:59:13.589Z,6.80
2022-12-27T04:01:42.567Z,7.27
2022-12-27T04:04:11.035Z,4.33
2022-12-27T04:06:41.445Z,4.40
2022-12-27T04:09:29.012Z,4.00
2022-12-27T04:12:16.235Z,3.90
2022-12-27T04:15:02.457Z,4.60
2022-12-27T04:17:49.257Z,3.67
2022-12-27T04:20:35.209Z,6.63
2022-12-27T04:23:22.874Z,4.43
2022-12-27T04:26:09.095Z,6.07
2022-12-27T04:28:54.814Z,4.10
2022-12-27T04:31:42.829Z,5.13
2022-12-27T04:34:30.014Z,4.67
2022-12-27T04:36:58.577Z,4.87
2022-12-27T04:39:28.145Z,4.73
2022-12-27T04:42:10.327Z,5.53
2022-12-27T04:44:58.246Z,5.23
2022-12-27T04:47:45.449Z,4.00
2022-12-27T04:50:39.529Z,4.53
2022-12-27T04:53:31.822Z,6.90
2022-12-27T04:56:01.978Z,6.97
2022-12-27T04:58:30.665Z,4.83
2022-12-27T05:01:27.623Z,5.37
2022-12-27T05:03:56.004Z,6.53
2022-12-27T05:06:24.381Z,7.33
2022-12-27T05:09:09.880Z,9.97
2022-12-27T05:11:53.562Z,8.90
2022-12-27T05:14:21.918Z,8.33
2022-12-27T05:16:50.117Z,13.77
2022-12-27T05:19:18.351Z,11.47
2022-12-27T05:22:06.960Z,9.57
2022-12-27T05:25:04.090Z,7.57
2022-12-27T05:27:33.789Z,7.00
2022-12-27T05:30:02.913Z,9.10
2022-12-27T05:32:31.208Z,8.23
2022-12-27T05:34:59.545Z,11.10
2022-12-27T05:37:28.775Z,10.90
2022-12-27T05:39:56.974Z,12.50
2022-12-27T05:42:25.494Z,6.93
2022-12-27T05:44:55.303Z,6.60
2022-12-27T05:47:23.676Z,6.20
2022-12-27T05:49:51.952Z,5.40
2022-12-27T05:52:20.415Z,7.27
2022-12-27T05:54:48.669Z,6.63
2022-12-27T05:57:16.842Z,9.23
2022-12-27T05:59:45.051Z,8.13
2022-12-27T06:02:15.856Z,9.70
2022-12-27T06:04:44.509Z,8.67
2022-12-27T06:07:13.700Z,9.47
2022-12-27T06:09:41.937Z,11.97
2022-12-27T06:12:10.260Z,11.10
2022-12-27T06:14:38.629Z,14.13
2022-12-27T06:17:06.832Z,8.93
2022-12-27T06:19:36.444Z,11.20
2022-12-27T06:22:04.692Z,7.80
2022-12-27T06:24:33.170Z,11.93
2022-12-27T06:27:01.440Z,11.00
2022-12-27T06:29:29.826Z,10.97
2022-12-27T06:31:58.132Z,11.27
2022-12-27T06:34:26.512Z,9.73
2022-12-27T06:36:56.103Z,9.73
2022-12-27T06:39:24.312Z,10.93
2022-12-27T06:41:55.199Z,10.00
2022-12-27T06:44:23.741Z,9.13
2022-12-27T06:46:52.012Z,12.57
2022-12-27T06:49:20.425Z,10.90
2022-12-27T06:51:55.741Z,11.97
2022-12-27T06:54:29.138Z,12.53
2022-12-27T06:56:59.112Z,9.70
2022-12-27T06:59:28.026Z,10.73
2022-12-27T07:01:56.580Z,10.27
2022-12-27T07:04:25.393Z,13.67
2022-12-27T07:06:53.876Z,13.13
2022-12-27T07:09:22.227Z,10.53
2022-12-27T07:11:53.515Z,13.47
2022-12-27T07:14:21.883Z,10.47
2022-12-27T07:16:50.697Z,13.47
2022-12-27T07:19:19.045Z,9.83
2022-12-27T07:21:47.858Z,13.17
2022-12-27T07:24:16.133Z,12.97
2022-12-27T07:26:44.716Z,10.40
2022-12-27T07:29:14.472Z,11.90
2022-12-27T07:31:42.915Z,16.90
2022-12-27T07:34:11.610Z,17.13
2022-12-27T07:36:41.879Z,34.67
2022-12-27T07:39:10.676Z,17.53
2022-12-27T07:41:39.417Z,28.57
2022-12-27T07:44:09.110Z,27.97
2022-12-27T07:46:38.696Z,17.63
2022-12-27T07:49:09.957Z,9.37
2022-12-27T07:51:42.274Z,14.43
2022-12-27T07:54:10.941Z,11.63
2022-12-27T07:56:39.416Z,13.27
2022-12-27T07:59:12.119Z,11.80
2022-12-27T08:02:05.154Z,12.80
2022-12-27T08:04:35.542Z,14.83
2022-12-27T08:07:08.040Z,13.10
2022-12-27T08:09:39.933Z,18.90
2022-12-27T08:12:09.284Z,15.30
2022-12-27T08:14:37.648Z,13.23
2022-12-27T08:17:11.902Z,11.10
2022-12-27T08:19:40.240Z,12.30
2022-12-27T08:22:09.823Z,12.40
2022-12-27T08:24:40.890Z,10.20
2022-12-27T08:27:09.456Z,12.00
2022-12-27T08:29:38.142Z,10.97
2022-12-27T08:32:07.833Z,13.30
2022-12-27T08:34:36.172Z,12.47
2022-12-27T08:37:04.520Z,9.57
2022-12-27T08:39:32.768Z,10.27
2022-12-27T08:42:01.352Z,6.83
2022-12-27T08:44:30.138Z,8.93
2022-12-27T08:46:59.499Z,6.93
2022-12-27T08:49:29.126Z,7.30
2022-12-27T08:51:58.732Z,6.53
2022-12-27T08:54:28.494Z,6.90
2022-12-27T08:56:57.072Z,7.07
2022-12-27T08:59:25.575Z,9.53
2022-12-27T09:01:54.240Z,5.43
2022-12-27T09:04:22.966Z,5.63
2022-12-27T09:06:52.587Z,11.13
2022-12-27T09:09:22.295Z,7.77
2022-12-27T09:11:50.696Z,8.53
2022-12-27T09:14:19.169Z,6.90
2022-12-27T09:16:47.883Z,6.50
2022-12-27T09:19:16.142Z,7.83
2022-12-27T09:21:44.975Z,10.07
2022-12-27T09:24:15.669Z,7.53
2022-12-27T09:26:44.079Z,7.03
2022-12-27T09:29:12.399Z,7.80
2022-12-27T09:31:40.593Z,5.23
2022-12-27T09:34:08.896Z,6.10
2022-12-27T09:36:40.612Z,6.47
2022-12-27T09:39:10.287Z,5.33
2022-12-27T09:44:50.969Z,4.90
2022-12-27T09:47:25.066Z,5.40
2022-12-27T09:49:56.405Z,8.50
2022-12-27T09:52:28.854Z,5.37
2022-12-27T09:55:05.370Z,5.63
2022-12-27T09:57:38.429Z,4.00
2022-12-27T10:00:15.656Z,8.67
2022-12-27T10:02:45.428Z,8.33
2022-12-27T10:05:21.882Z,7.67
2022-12-27T10:08:19.432Z,6.60
2022-12-27T10:10:56.816Z,6.07
2022-12-27T10:13:39.189Z,5.03
2022-12-27T10:16:20.995Z,6.27
2022-12-27T10:19:13.220Z,5.40
2022-12-27T10:21:50.430Z,6.33
2022-12-27T10:24:24.026Z,6.90
2022-12-27T10:26:55.064Z,6.83
2022-12-27T10:29:28.024Z,7.67
2022-12-27T10:31:56.233Z,7.47
2022-12-27T10:34:25.028Z,7.80
2022-12-27T10:36:53.948Z,8.53
2022-12-27T10:39:28.692Z,8.80
2022-12-27T10:42:05.724Z,9.83
2022-12-27T10:44:35.684Z,12.00
2022-12-27T10:47:04.416Z,9.33
2022-12-27T10:49:34.673Z,12.90
2022-12-27T10:52:09.706Z,15.23
2022-12-27T10:54:52.727Z,7.70
2022-12-27T10:57:27.084Z,7.17
2022-12-27T11:02:55.183Z,6.87
2022-12-27T11:05:25.830Z,6.07
2022-12-27T11:07:54.090Z,5.47
2022-12-27T11:10:24.657Z,5.80
2022-12-27T11:12:58.087Z,6.10
2022-12-27T11:15:27.521Z,5.93
2022-12-27T11:18:00.290Z,5.90
2022-12-27T11:20:30.767Z,6.90
2022-12-27T11:23:02.857Z,5.43
2022-12-27T11:25:32.216Z,5.30
2022-12-27T11:28:04.295Z,5.97
2022-12-27T11:30:36.395Z,5.77
2022-12-27T11:33:24.306Z,5.70
2022-12-27T11:35:55.377Z,4.70
2022-12-27T11:38:26.771Z,5.73
2022-12-27T11:41:03.247Z,5.90
2022-12-27T11:43:35.934Z,5.27
2022-12-27T11:46:09.305Z,4.93
2022-12-27T11:48:43.582Z,4.40
2022-12-27T11:51:59.598Z,5.93
2022-12-27T11:54:48.411Z,13.80
2022-12-27T11:57:26.751Z,10.57
2022-12-27T12:00:04.747Z,7.53
2022-12-27T12:02:44.290Z,4.97
2022-12-27T12:05:48.621Z,4.40
2022-12-27T12:08:45.730Z,4.20
2022-12-27T12:11:27.822Z,4.30
2022-12-27T12:14:31.689Z,7.27
2022-12-27T12:17:15.899Z,5.70
2022-12-27T12:20:01.858Z,10.93
2022-12-27T12:22:41.520Z,6.77
2022-12-27T12:25:34.487Z,6.33
2022-12-27T12:28:59.253Z,7.27
2022-12-27T12:31:56.708Z,10.37
2022-12-27T12:34:44.446Z,6.30
2022-12-27T12:37:27.294Z,6.33
2022-12-27T12:40:23.758Z,6.10
2022-12-27T12:43:02.433Z,8.40
2022-12-27T12:45:58.550Z,6.33
2022-12-27T12:49:05.545Z,6.20
2022-12-27T12:51:53.014Z,6.70
2022-12-27T12:54:48.342Z,6.00
2022-12-27T12:57:30.454Z,7.80
2022-12-27T13:00:25.150Z,7.67
2022-12-27T13:03:23.673Z,7.27
2022-12-27T13:05:59.250Z,5.40
2022-12-27T13:08:34.430Z,9.87
2022-12-27T13:11:26.784Z,6.73
2022-12-27T13:14:34.297Z,6.23
2022-12-27T13:17:07.739Z,5.67
2022-12-27T13:20:02.012Z,6.27
2022-12-27T13:22:41.914Z,7.90
2022-12-27T13:25:24.953Z,7.30
2022-12-27T13:28:00.444Z,5.93
2022-12-27T13:30:36.981Z,5.50
2022-12-27T13:33:24.519Z,7.20
2022-12-27T13:36:06.979Z,8.33
2022-12-27T13:39:02.560Z,8.37
2022-12-27T13:41:48.308Z,6.97
2022-12-27T13:44:28.174Z,8.60
2022-12-27T13:47:27.079Z,8.10
2022-12-27T13:50:18.409Z,7.73
2022-12-27T13:53:00.310Z,9.10
2022-12-27T13:55:43.415Z,9.53
2022-12-27T13:58:30.071Z,7.63
2022-12-27T14:01:07.792Z,6.33
2022-12-27T14:04:07.700Z,7.20
2022-12-27T14:06:59.598Z,8.40
2022-12-27T14:09:52.303Z,7.47
2022-12-27T14:12:45.796Z,7.03
2022-12-27T14:15:19.045Z,8.30
2022-12-27T14:17:54.947Z,8.93
2022-12-27T14:20:45.313Z,6.87
2022-12-27T14:23:26.856Z,7.10
2022-12-27T14:26:32.499Z,7.87
2022-12-27T14:29:36.854Z,11.23
2022-12-27T14:32:39.501Z,11.23
2022-12-27T14:35:52.236Z,9.20
2022-12-27T14:38:51.017Z,11.73
2022-12-27T14:41:52.087Z,9.60
2022-12-27T14:44:46.965Z,9.57
2022-12-27T14:48:01.551Z,8.90
2022-12-27T14:51:32.683Z,9.80
2022-12-27T14:54:43.934Z,9.30
2022-12-27T14:57:28.741Z,7.30
2022-12-27T15:00:16.651Z,7.87
2022-12-27T15:03:02.977Z,7.20
2022-12-27T15:05:59.474Z,8.70
2022-12-27T15:08:56.506Z,8.10
2022-12-27T15:11:39.066Z,9.27
2022-12-27T15:14:26.823Z,9.93
2022-12-27T15:17:04.953Z,12.53
2022-12-27T15:19:48.331Z,14.73
2022-12-27T15:22:29.305Z,11.50
2022-12-27T15:25:03.932Z,8.50
2022-12-27T15:27:40.776Z,9.53
2022-12-27T15:30:21.374Z,8.87
2022-12-27T15:32:58.981Z,10.57
2022-12-27T15:35:51.249Z,9.67
2022-12-27T15:38:22.533Z,9.63
2022-12-27T15:41:11.461Z,8.97
2022-12-27T15:44:13.290Z,9.57
2022-12-27T15:47:05.618Z,13.93
2022-12-27T15:49:57.663Z,26.77
2022-12-27T15:52:35.943Z,26.57
2022-12-27T15:55:25.657Z,26.10
2022-12-27T15:58:09.352Z,17.67
2022-12-27T16:00:40.212Z,10.83
2022-12-27T16:03:32.794Z,12.20
2022-12-27T16:06:01.796Z,14.30
2022-12-27T16:08:34.048Z,14.97
2022-12-27T16:11:04.404Z,15.10
2022-12-27T16:13:43.189Z,16.33
2022-12-27T16:16:55.556Z,16.77
2022-12-27T16:19:50.653Z,17.57
2022-12-27T16:22:34.291Z,18.03
2022-12-27T16:25:30.670Z,18.27
2022-12-27T16:28:03.928Z,15.00
2022-12-27T16:30:43.793Z,13.67
2022-12-27T16:33:38.508Z,15.23
2022-12-27T16:36:22.511Z,19.07
2022-12-27T16:39:16.837Z,17.03
2022-12-27T16:42:02.483Z,18.07
2022-12-27T16:44:54.110Z,14.43
2022-12-27T16:48:06.418Z,18.07
2022-12-27T16:50:56.825Z,19.13
2022-12-27T16:53:42.227Z,19.67
2022-12-27T16:56:22.994Z,18.47
2022-12-27T16:58:51.584Z,24.73
2022-12-27T17:01:55.863Z,25.83
2022-12-27T17:04:52.457Z,22.10
2022-12-27T17:07:50.751Z,17.47
2022-12-27T17:11:00.294Z,21.07
2022-12-27T17:13:46.250Z,19.00
2022-12-27T17:16:20.266Z,18.27
2022-12-27T17:18:52.894Z,21.83
2022-12-27T17:21:30.223Z,20.87
2022-12-27T17:24:02.630Z,19.93
2022-12-27T17:26:56.730Z,17.27
2022-12-27T17:29:48.551Z,15.87
2022-12-27T17:32:27.767Z,16.77
2022-12-27T17:35:06.206Z,16.87
2022-12-27T17:37:43.480Z,17.90
2022-12-27T17:40:28.460Z,16.13
2022-12-27T17:43:29.674Z,18.33
2022-12-27T17:46:16.695Z,15.70
2022-12-27T17:48:46.836Z,14.70
2022-12-27T17:51:21.681Z,16.27
2022-12-27T17:54:08.017Z,21.20
2022-12-27T17:57:03.169Z,19.60
2022-12-27T17:59:32.843Z,15.43
2022-12-27T18:02:07.019Z,17.13
2022-12-27T18:04:39.733Z,18.20
2022-12-27T18:07:10.620Z,17.53
2022-12-27T18:09:44.632Z,17.67
2022-12-27T18:12:19.927Z,31.50
2022-12-27T18:14:55.403Z,21.63
2022-12-27T18:17:29.266Z,20.33
2022-12-27T18:19:58.127Z,18.93
2022-12-27T18:22:28.079Z,18.70
2022-12-27T18:24:56.680Z,22.70
2022-12-27T18:27:27.179Z,21.73
2022-12-27T18:29:55.397Z,24.60
2022-12-27T18:32:25.716Z,26.17
2022-12-27T18:34:58.292Z,23.67
2022-12-27T18:37:28.062Z,30.57
2022-12-27T18:40:03.706Z,23.87
2022-12-27T18:42:35.605Z,22.13
2022-12-27T18:45:06.362Z,22.13
2022-12-27T18:47:41.086Z,22.10
2022-12-27T18:50:19.055Z,22.97
2022-12-27T18:52:51.193Z,19.77
2022-12-27T18:55:27.032Z,21.77
2022-12-27T18:58:05.836Z,24.43
2022-12-27T19:00:47.284Z,20.97
2022-12-27T19:03:17.744Z,19.80
2022-12-27T19:06:01.245Z,17.33
2022-12-27T19:08:35.165Z,18.57
2022-12-27T19:11:04.316Z,20.40
2022-12-27T19:13:44.303Z,16.50
2022-12-27T19:16:24.143Z,17.47
2022-12-27T19:18:55.008Z,17.73
2022-12-27T19:21:32.384Z,20.30
2022-12-27T19:24:21.399Z,18.33
2022-12-27T19:26:50.228Z,18.60
2022-12-27T19:29:21.880Z,16.93
2022-12-27T19:31:56.587Z,19.83
2022-12-27T19:34:28.086Z,21.10
2022-12-27T19:36:57.600Z,26.83
2022-12-27T19:39:28.516Z,20.43
2022-12-27T19:42:01.066Z,20.73
2022-12-27T19:44:32.742Z,19.50
2022-12-27T19:47:01.106Z,15.03
2022-12-27T19:49:42.598Z,15.57
2022-12-27T19:52:17.446Z,18.93
2022-12-27T19:54:46.527Z,14.83
2022-12-27T19:57:14.812Z,15.73
2022-12-27T19:59:44.409Z,12.67
2022-12-27T20:02:13.305Z,16.70
2022-12-27T20:04:41.819Z,15.70
2022-12-27T20:07:19.143Z,13.23
2022-12-27T20:09:47.349Z,15.70
2022-12-27T20:12:17.783Z,13.93
2022-12-27T20:14:48.219Z,14.10
2022-12-27T20:17:16.742Z,17.50
2022-12-27T20:19:45.054Z,16.57
2022-12-27T20:22:13.259Z,14.20
2022-12-27T20:24:41.533Z,12.40
2022-12-27T20:27:10.103Z,17.97
2022-12-27T20:29:38.788Z,15.57
2022-12-27T20:32:08.613Z,14.50
2022-12-27T20:34:36.995Z,13.07
2022-12-27T20:37:05.297Z,16.50
2022-12-27T20:39:34.355Z,16.43
2022-12-27T20:42:02.730Z,12.57
2022-12-27T20:44:31.391Z,14.30
2022-12-27T20:46:59.553Z,13.60
2022-12-27T20:49:29.165Z,16.50
2022-12-27T20:51:57.607Z,13.83
2022-12-27T20:54:26.213Z,13.03
2022-12-27T20:56:54.494Z,11.20
2022-12-27T20:59:22.751Z,14.13
2022-12-27T21:01:56.787Z,14.40
2022-12-27T21:04:26.765Z,15.17
2022-12-27T21:06:56.634Z,12.27
2022-12-27T21:09:24.885Z,12.83
2022-12-27T21:11:53.692Z,14.50
2022-12-27T21:14:22.108Z,16.57
2022-12-27T21:16:50.419Z,15.37
2022-12-27T21:19:19.672Z,14.23
2022-12-27T21:21:48.187Z,12.17
2022-12-27T21:24:18.019Z,12.73
2022-12-27T21:26:46.883Z,14.57
2022-12-27T21:29:16.427Z,12.97
2022-12-27T21:31:44.886Z,13.00
2022-12-27T21:34:13.517Z,12.40
2022-12-27T21:36:41.739Z,13.23
2022-12-27T21:39:10.089Z,14.17
2022-12-27T21:41:41.141Z,15.20
2022-12-27T21:44:09.692Z,13.70
2022-12-27T21:46:39.800Z,13.60
2022-12-27T21:49:12.116Z,15.03
2022-12-27T21:51:42.085Z,16.77
2022-12-27T21:54:13.639Z,13.87
2022-12-27T21:56:43.973Z,12.23
2022-12-27T21:59:12.479Z,12.93
2022-12-27T22:01:50.066Z,13.03
2022-12-27T22:04:20.096Z,15.30
2022-12-27T22:06:48.453Z,11.83
2022-12-27T22:09:16.900Z,14.43
2022-12-27T22:11:46.628Z,15.93
2022-12-27T22:14:14.980Z,12.37
2022-12-27T22:16:43.313Z,11.67
2022-12-27T22:19:13.514Z,13.03
2022-12-27T22:21:42.774Z,10.97
2022-12-27T22:24:17.287Z,11.83
2022-12-27T22:26:48.831Z,14.63
2022-12-27T22:29:17.782Z,13.23
2022-12-27T22:31:46.584Z,15.13
2022-12-27T22:34:18.167Z,14.47
2022-12-27T22:36:46.435Z,14.93
2022-12-27T22:39:15.052Z,16.33
2022-12-27T22:41:43.265Z,11.60
2022-12-27T22:44:14.674Z,16.90
2022-12-27T22:49:36.283Z,17.87
2022-12-27T22:52:04.761Z,13.20
2022-12-27T22:55:03.316Z,15.60
2022-12-27T22:57:21.332Z,13.53
2022-12-27T22:59:51.180Z,14.00
2022-12-27T23:02:19.645Z,14.53
2022-12-27T23:04:48.058Z,14.73
2022-12-27T23:07:20.040Z,14.37
2022-12-27T23:09:48.602Z,14.53
2022-12-27T23:12:16.914Z,15.77
2022-12-27T23:14:45.405Z,15.57
2022-12-27T23:17:15.096Z,14.13
2022-12-27T23:19:43.404Z,13.27
2022-12-27T23:22:11.905Z,16.47
2022-12-27T23:24:40.252Z,14.23
2022-12-27T23:27:08.550Z,13.23
2022-12-27T23:29:36.852Z,15.13
2022-12-27T23:32:05.526Z,16.93
2022-12-27T23:34:35.272Z,14.53
2022-12-27T23:37:03.665Z,14.00
2022-12-27T23:39:32.110Z,15.27
2022-12-27T23:42:00.519Z,17.80
2022-12-27T23:44:34.491Z,17.80
2022-12-27T23:47:05.527Z,19.53
2022-12-27T23:49:35.557Z,18.43
2022-12-27T23:52:04.276Z,17.50
2022-12-27T23:54:32.729Z,16.60
2022-12-27T23:57:22.172Z,15.40
2022-12-27T23:59:51.231Z,17.10
